Time;durP1;ratioP1;P1;durP2;ratioP2;P2;SDS_P1;SDS_P2;PMS_P1;PMS_P2;Temp;Humidity;BMP_temperature;BMP_pressure;BME280_temperature;BME280_humidity;BME280_pressure;Samples;Min_cycle;Max_cycle;Signal;HPM_P1;HPM_P2
2022/01/31 00:00:58;;;;;;;26.95;5.50;;;4.00;99.90;;;;;;5077581;28;20047;-81
2022/01/31 00:03:24;;;;;;;23.27;5.18;;;4.00;99.90;;;;;;5093602;28;20047;-81
2022/01/31 00:05:50;;;;;;;25.52;5.63;;;4.00;99.90;;;;;;5094520;28;20086;-81
2022/01/31 00:08:21;;;;;;;19.73;5.13;;;4.00;99.90;;;;;;5094173;28;20039;-81
2022/01/31 00:10:48;;;;;;;22.02;5.63;;;4.00;99.90;;;;;;5077495;28;20036;-81
2022/01/31 00:13:20;;;;;;;23.23;5.22;;;4.00;99.90;;;;;;5094140;28;20040;-81
2022/01/31 00:15:52;;;;;;;21.42;5.72;;;4.10;99.90;;;;;;5094512;28;20399;-81
2022/01/31 00:18:18;;;;;;;24.48;6.07;;;4.80;99.90;;;;;;5061054;28;20036;-81
2022/01/31 00:20:44;;;;;;;25.70;6.20;;;4.50;99.90;;;;;;5077476;28;20100;-81
2022/01/31 00:23:10;;;;;;;27.02;6.28;;;4.20;99.90;;;;;;5077260;28;20028;-81
2022/01/31 00:25:36;;;;;;;23.73;6.10;;;4.20;99.90;;;;;;5094157;28;20032;-81
2022/01/31 00:28:02;;;;;;;25.70;6.50;;;4.00;99.90;;;;;;5093627;28;20052;-81
2022/01/31 00:30:28;;;;;;;21.17;5.72;;;4.00;99.90;;;;;;5076816;28;20051;-81
2022/01/31 00:32:53;;;;;;;23.02;6.55;;;4.10;99.90;;;;;;5076158;28;20035;-81
2022/01/31 00:35:19;;;;;;;22.88;6.22;;;4.20;99.90;;;;;;5076870;28;20142;-81
2022/01/31 00:37:45;;;;;;;19.48;5.57;;;4.20;99.90;;;;;;5043462;28;20040;-81
2022/01/31 00:40:12;;;;;;;19.10;5.65;;;4.00;99.90;;;;;;5077161;28;20368;-81
2022/01/31 00:42:38;;;;;;;21.70;5.90;;;4.10;99.90;;;;;;5060222;28;20040;-81
2022/01/31 00:45:58;;;;;;;21.83;5.90;;;4.00;99.90;;;;;;5093552;28;20129;-81
2022/01/31 00:48:02;;;;;;;23.95;6.18;;;4.10;99.90;;;;;;5081757;28;20048;-81
2022/01/31 00:50:39;;;;;;;23.02;6.38;;;4.10;99.90;;;;;;5076910;28;20395;-81
2022/01/31 00:53:06;;;;;;;19.08;6.20;;;4.00;99.90;;;;;;5093627;28;20463;-81
2022/01/31 00:55:32;;;;;;;24.17;6.60;;;4.00;99.90;;;;;;5093374;28;20085;-81
2022/01/31 00:57:57;;;;;;;20.85;6.60;;;4.00;99.90;;;;;;5093373;28;20090;-81
2022/01/31 01:00:23;;;;;;;26.00;6.68;;;4.00;99.90;;;;;;5076733;28;20150;-81
2022/01/31 01:02:49;;;;;;;21.55;6.60;;;4.00;99.90;;;;;;5092389;28;20441;-81
2022/01/31 01:05:15;;;;;;;20.85;5.88;;;4.00;99.90;;;;;;5076957;28;20127;-81
2022/01/31 01:07:45;;;;;;;23.90;6.65;;;4.10;99.90;;;;;;5076094;28;20466;-81
2022/01/31 01:10:12;;;;;;;20.08;6.00;;;4.10;99.90;;;;;;5092297;28;20048;-81
2022/01/31 01:12:38;;;;;;;20.15;6.22;;;4.60;99.90;;;;;;5059622;28;20040;-81
2022/01/31 01:15:05;;;;;;;21.00;6.45;;;4.10;99.90;;;;;;5059540;28;20380;-81
2022/01/31 01:17:30;;;;;;;18.33;6.03;;;4.10;99.90;;;;;;5075512;28;20035;-81
2022/01/31 01:19:56;;;;;;;25.63;7.00;;;4.10;99.90;;;;;;5076084;28;20065;-81
2022/01/31 01:22:22;;;;;;;17.95;6.22;;;4.80;99.90;;;;;;5092652;28;20407;-81
2022/01/31 01:24:48;;;;;;;21.13;6.85;;;4.10;99.90;;;;;;5076170;28;20044;-81
2022/01/31 01:27:18;;;;;;;19.15;5.97;;;4.10;99.90;;;;;;5092384;28;20056;-81
2022/01/31 01:29:45;;;;;;;24.77;7.35;;;4.10;99.90;;;;;;5092839;28;20161;-81
2022/01/31 01:32:11;;;;;;;22.80;7.60;;;4.10;99.90;;;;;;5075036;28;20512;-81
2022/01/31 01:34:37;;;;;;;21.48;7.75;;;4.80;99.90;;;;;;5059196;28;20123;-81
2022/01/31 01:37:03;;;;;;;20.38;7.63;;;4.30;99.90;;;;;;5075519;28;20044;-81
2022/01/31 01:39:29;;;;;;;28.52;8.25;;;4.00;99.90;;;;;;5092897;28;20051;-81
2022/01/31 01:41:55;;;;;;;24.88;8.27;;;4.30;99.90;;;;;;5058798;28;20043;-81
2022/01/31 01:44:47;;;;;;;21.98;8.35;;;3.90;99.90;;;;;;5092782;28;20135;-81
2022/01/31 01:47:24;;;;;;;23.20;9.07;;;3.90;99.90;;;;;;5091546;28;20048;-81
2022/01/31 01:49:51;;;;;;;22.77;10.02;;;3.80;99.90;;;;;;5076119;28;20123;-81
2022/01/31 01:52:17;;;;;;;22.30;10.95;;;3.80;99.90;;;;;;5075333;28;20039;-81
2022/01/31 01:54:46;;;;;;;24.33;11.05;;;3.90;99.90;;;;;;5058879;28;20036;-81
2022/01/31 01:57:12;;;;;;;25.27;10.63;;;3.90;99.90;;;;;;5075165;28;20470;-81
2022/01/31 01:59:40;;;;;;;25.20;11.52;;;4.30;99.90;;;;;;5059063;28;20040;-81
2022/01/31 02:02:06;;;;;;;30.02;12.85;;;3.70;99.90;;;;;;5058165;28;20040;-81
2022/01/31 02:04:32;;;;;;;25.40;11.73;;;3.70;99.90;;;;;;5075338;28;20496;-81
2022/01/31 02:06:58;;;;;;;26.40;12.88;;;3.70;99.90;;;;;;5091810;28;20054;-81
2022/01/31 02:09:27;;;;;;;28.92;14.68;;;3.60;99.90;;;;;;5092111;28;20036;-81
2022/01/31 02:11:54;;;;;;;25.90;14.05;;;3.50;99.90;;;;;;5075768;28;20072;-81
2022/01/31 02:14:24;;;;;;;26.98;14.00;;;3.40;99.90;;;;;;5075437;28;20114;-81
2022/01/31 02:16:51;;;;;;;26.25;12.55;;;3.30;99.90;;;;;;5092038;28;20050;-81
2022/01/31 02:19:21;;;;;;;28.02;14.18;;;3.40;99.90;;;;;;5091339;28;20040;-81
2022/01/31 02:21:52;;;;;;;24.35;13.35;;;3.20;99.90;;;;;;5074841;28;20055;-81
2022/01/31 02:24:19;;;;;;;31.35;15.80;;;3.10;99.90;;;;;;5075337;28;20500;-81
2022/01/31 02:26:45;;;;;;;30.05;16.17;;;3.00;99.90;;;;;;5091714;28;20131;-81
2022/01/31 02:29:11;;;;;;;28.40;15.18;;;3.00;99.90;;;;;;5075009;28;20040;-81
2022/01/31 02:31:44;;;;;;;26.73;15.63;;;3.00;99.90;;;;;;5075197;28;20522;-80
2022/01/31 02:34:10;;;;;;;32.45;16.58;;;3.00;99.90;;;;;;5075125;28;20047;-80
2022/01/31 02:36:36;;;;;;;27.75;15.90;;;3.00;99.90;;;;;;5075266;28;20044;-80
2022/01/31 02:39:04;;;;;;;34.20;18.25;;;3.00;99.90;;;;;;5075164;28;20487;-80
2022/01/31 02:41:30;;;;;;;33.40;19.38;;;3.00;99.90;;;;;;5075496;28;20080;-80
2022/01/31 02:43:56;;;;;;;33.88;18.10;;;3.00;99.90;;;;;;5075143;28;20488;-80
2022/01/31 02:46:25;;;;;;;33.85;18.38;;;3.00;99.90;;;;;;5091682;28;20036;-80
2022/01/31 02:48:52;;;;;;;26.45;17.98;;;3.10;99.90;;;;;;5074221;28;20487;-80
2022/01/31 02:51:22;;;;;;;31.65;18.45;;;3.10;99.90;;;;;;5091682;28;20040;-80
2022/01/31 02:53:48;;;;;;;36.05;19.75;;;3.10;99.90;;;;;;5058542;28;20043;-80
2022/01/31 02:56:14;;;;;;;30.65;18.45;;;3.10;99.90;;;;;;5108532;28;20471;-80
2022/01/31 02:58:40;;;;;;;34.03;17.55;;;3.10;99.90;;;;;;5091481;28;20474;-80
2022/01/31 03:01:06;;;;;;;28.50;16.35;;;3.20;99.90;;;;;;5091574;28;20123;-80
2022/01/31 03:03:31;;;;;;;28.10;18.77;;;3.20;99.90;;;;;;5073813;28;20128;-80
2022/01/31 03:05:58;;;;;;;28.90;19.27;;;3.20;99.90;;;;;;5108374;28;20036;-80
2022/01/31 03:08:24;;;;;;;24.10;16.50;;;3.40;99.90;;;;;;5091440;28;20109;-80
2022/01/31 03:10:51;;;;;;;26.25;17.58;;;3.60;99.90;;;;;;5091535;28;20040;-80
2022/01/31 03:13:17;;;;;;;24.23;16.10;;;3.20;99.90;;;;;;5091581;28;20377;-80
2022/01/31 03:15:43;;;;;;;20.67;13.88;;;3.20;99.90;;;;;;5074667;28;20036;-80
2022/01/31 03:18:09;;;;;;;21.67;13.15;;;3.20;99.90;;;;;;5074012;28;20036;-80
2022/01/31 03:20:35;;;;;;;26.23;16.52;;;3.40;99.90;;;;;;5074446;28;20035;-80
2022/01/31 03:23:01;;;;;;;20.88;15.02;;;3.20;99.90;;;;;;5074397;28;20032;-80
2022/01/31 03:25:27;;;;;;;22.88;15.73;;;3.20;99.90;;;;;;5091358;28;20085;-80
2022/01/31 03:27:53;;;;;;;17.42;13.27;;;3.20;99.90;;;;;;5074089;28;20139;-80
2022/01/31 03:30:23;;;;;;;19.88;14.07;;;3.90;99.90;;;;;;5108276;28;20044;-80
2022/01/31 03:32:49;;;;;;;18.65;13.95;;;3.20;99.90;;;;;;5090655;28;20037;-80
2022/01/31 03:35:16;;;;;;;21.50;14.30;;;3.20;99.90;;;;;;5077966;28;20051;-80
2022/01/31 03:37:42;;;;;;;18.77;13.77;;;3.40;99.90;;;;;;5077750;28;20043;-80
2022/01/31 03:40:09;;;;;;;19.83;15.18;;;3.10;99.90;;;;;;5094885;28;20048;-80
2022/01/31 03:42:36;;;;;;;18.83;13.95;;;3.10;99.90;;;;;;5094747;28;20044;-80
2022/01/31 03:45:04;;;;;;;21.73;15.77;;;3.20;99.90;;;;;;5061186;28;20035;-80
2022/01/31 03:47:29;;;;;;;22.75;15.52;;;3.10;99.90;;;;;;5060353;28;20163;-80
2022/01/31 03:49:55;;;;;;;20.10;14.50;;;3.20;99.90;;;;;;5111651;28;20067;-80
2022/01/31 03:52:21;;;;;;;18.48;14.00;;;3.20;99.90;;;;;;5077484;28;20039;-80
2022/01/31 03:54:47;;;;;;;20.30;15.43;;;3.90;99.90;;;;;;5099786;28;20040;-80
2022/01/31 03:57:13;;;;;;;20.63;14.98;;;3.80;99.90;;;;;;5094578;28;20047;-80
2022/01/31 03:59:39;;;;;;;28.08;18.88;;;3.30;99.90;;;;;;5094744;28;20084;-80
2022/01/31 04:02:06;;;;;;;29.20;19.23;;;3.30;99.90;;;;;;5076839;28;20055;-80
2022/01/31 04:04:33;;;;;;;23.25;16.13;;;3.40;99.90;;;;;;5061453;28;20521;-80
2022/01/31 04:06:58;;;;;;;22.60;15.98;;;3.30;99.90;;;;;;5094027;28;20127;-80
2022/01/31 04:09:24;;;;;;;25.70;17.83;;;3.40;99.90;;;;;;5077496;28;20118;-80
2022/01/31 04:11:50;;;;;;;28.05;17.42;;;3.50;99.90;;;;;;5077718;28;20131;-80
2022/01/31 04:14:15;;;;;;;28.00;18.52;;;3.40;99.90;;;;;;5094006;28;20040;-80
2022/01/31 04:16:41;;;;;;;24.35;16.52;;;3.50;99.90;;;;;;5094097;28;20442;-80
2022/01/31 04:19:07;;;;;;;24.63;17.23;;;3.80;99.90;;;;;;5093276;28;20040;-80
2022/01/31 04:21:32;;;;;;;30.92;17.45;;;3.80;99.90;;;;;;5077050;28;20047;-80
2022/01/31 04:23:58;;;;;;;28.55;17.95;;;3.60;99.90;;;;;;5077072;28;20482;-80
2022/01/31 04:26:31;;;;;;;27.48;17.45;;;3.70;99.90;;;;;;5077184;28;20109;-80
2022/01/31 04:29:05;;;;;;;29.15;16.00;;;3.90;99.90;;;;;;5093645;28;20130;-80
2022/01/31 04:31:38;;;;;;;30.85;16.92;;;3.80;99.90;;;;;;5078042;28;20047;-80
2022/01/31 04:34:04;;;;;;;25.40;14.73;;;4.00;99.90;;;;;;5078670;28;20454;-80
2022/01/31 04:36:30;;;;;;;27.05;12.27;;;4.00;99.90;;;;;;5093696;28;20071;-80
2022/01/31 04:38:56;;;;;;;30.65;13.38;;;4.60;99.90;;;;;;5093903;28;20063;-80
2022/01/31 04:41:22;;;;;;;23.48;12.63;;;4.20;99.90;;;;;;5076871;28;20040;-80
2022/01/31 04:43:49;;;;;;;26.88;12.65;;;4.20;99.90;;;;;;5093508;28;20056;-80
2022/01/31 04:46:15;;;;;;;13.95;4.05;;;4.30;99.90;;;;;;5076596;28;20048;-80
2022/01/31 04:48:43;;;;;;;11.25;2.38;;;4.40;99.90;;;;;;5075962;28;20368;-80
2022/01/31 04:51:10;;;;;;;10.38;1.90;;;4.30;99.90;;;;;;5093746;28;20051;-80
2022/01/31 04:53:36;;;;;;;10.80;1.95;;;4.20;99.90;;;;;;5093331;28;20123;-80
2022/01/31 04:56:03;;;;;;;7.60;1.60;;;4.20;99.90;;;;;;5076466;28;20040;-80
2022/01/31 04:58:31;;;;;;;11.40;1.73;;;4.40;99.90;;;;;;5076327;28;20134;-80
2022/01/31 05:00:57;;;;;;;12.20;2.10;;;4.40;99.90;;;;;;5076696;28;20484;-80
2022/01/31 05:03:22;;;;;;;12.77;2.20;;;4.40;99.90;;;;;;5075445;28;20043;-80
2022/01/31 05:05:48;;;;;;;11.73;2.10;;;4.50;99.90;;;;;;5076180;28;20550;-80
2022/01/31 05:08:16;;;;;;;12.85;2.58;;;4.60;99.90;;;;;;5076568;28;20040;-80
2022/01/31 05:10:47;;;;;;;13.55;2.42;;;4.60;99.90;;;;;;5093273;28;20032;-80
2022/01/31 05:13:14;;;;;;;20.15;2.92;;;4.60;99.90;;;;;;5093241;28;20388;-80
2022/01/31 05:15:40;;;;;;;21.88;3.35;;;4.60;99.90;;;;;;5076452;28;20043;-80
2022/01/31 05:18:06;;;;;;;23.90;4.03;;;4.60;99.90;;;;;;5092030;28;20051;-80
2022/01/31 05:20:32;;;;;;;17.63;3.55;;;4.70;99.90;;;;;;5075802;28;20558;-80
2022/01/31 05:22:58;;;;;;;23.83;4.10;;;4.70;99.90;;;;;;5059575;28;20059;-80
2022/01/31 05:25:24;;;;;;;19.80;3.97;;;4.70;99.90;;;;;;5076092;28;20098;-80
2022/01/31 05:27:50;;;;;;;22.20;3.40;;;4.80;99.90;;;;;;5075560;28;20060;-80
2022/01/31 05:30:19;;;;;;;24.50;3.83;;;4.80;99.90;;;;;;5059497;28;20042;-80
2022/01/31 05:32:45;;;;;;;18.83;3.10;;;4.90;99.90;;;;;;5075803;28;20062;-80
2022/01/31 05:35:11;;;;;;;20.35;3.88;;;4.90;99.90;;;;;;5075745;28;20039;-80
2022/01/31 05:37:37;;;;;;;22.58;4.28;;;5.00;99.90;;;;;;5075518;28;20085;-80
2022/01/31 05:40:04;;;;;;;26.30;4.22;;;4.90;99.90;;;;;;5059064;28;20127;-80
2022/01/31 05:42:30;;;;;;;23.42;4.25;;;4.90;99.90;;;;;;5109646;28;20511;-80
2022/01/31 05:44:56;;;;;;;26.73;4.07;;;4.90;99.90;;;;;;5092796;28;20055;-80
2022/01/31 05:47:22;;;;;;;23.40;4.18;;;5.40;99.90;;;;;;5074594;28;20089;-80
2022/01/31 05:49:47;;;;;;;23.13;4.20;;;5.00;99.90;;;;;;5075900;28;20040;-80
2022/01/31 05:52:13;;;;;;;16.65;3.00;;;5.10;99.90;;;;;;5063924;28;20047;-80
2022/01/31 05:54:41;;;;;;;13.32;2.60;;;5.10;99.90;;;;;;5102640;28;20554;-80
2022/01/31 05:57:07;;;;;;;8.85;1.88;;;5.10;99.90;;;;;;5074233;28;20039;-80
2022/01/31 05:59:34;;;;;;;9.50;2.10;;;5.10;99.90;;;;;;5063216;28;20507;-80
2022/01/31 06:02:01;;;;;;;11.48;1.90;;;5.10;99.90;;;;;;5092162;28;20105;-80
2022/01/31 06:04:28;;;;;;;9.25;1.67;;;5.00;99.90;;;;;;5075683;28;20440;-80
2022/01/31 06:06:53;;;;;;;11.93;1.60;;;4.90;99.90;;;;;;5091320;28;20710;-80
2022/01/31 06:09:19;;;;;;;9.20;1.55;;;4.80;99.90;;;;;;5077407;28;20480;-80
2022/01/31 06:11:48;;;;;;;8.52;1.40;;;4.80;99.90;;;;;;5060918;28;20064;-80
2022/01/31 06:14:14;;;;;;;11.23;1.65;;;4.70;99.90;;;;;;5074606;28;20032;-80
2022/01/31 06:16:40;;;;;;;8.32;1.40;;;4.70;99.90;;;;;;5092582;28;20067;-80
2022/01/31 06:19:06;;;;;;;8.77;1.35;;;4.80;99.90;;;;;;5074983;28;20063;-80
2022/01/31 06:21:32;;;;;;;7.93;1.40;;;4.70;99.90;;;;;;5091369;28;20503;-81
2022/01/31 06:23:57;;;;;;;6.43;1.30;;;4.70;99.90;;;;;;5091529;28;20035;-81
2022/01/31 06:26:23;;;;;;;8.63;1.45;;;4.60;99.90;;;;;;5091320;28;20047;-81
2022/01/31 06:28:49;;;;;;;8.13;1.40;;;4.60;99.90;;;;;;5091210;28;20484;-81
2022/01/31 06:31:15;;;;;;;8.18;1.35;;;4.60;99.90;;;;;;5090997;28;20027;-81
2022/01/31 06:33:41;;;;;;;11.00;1.50;;;4.50;99.90;;;;;;5093870;28;20028;-81
2022/01/31 06:36:07;;;;;;;7.95;1.50;;;4.60;99.90;;;;;;5077830;28;20092;-81
2022/01/31 06:38:35;;;;;;;9.20;1.40;;;4.60;99.90;;;;;;5094214;28;20074;-81
2022/01/31 06:41:02;;;;;;;8.25;1.45;;;4.60;99.90;;;;;;5078065;28;20040;-81
2022/01/31 06:43:27;;;;;;;10.63;1.40;;;4.60;99.90;;;;;;5060932;28;20047;-81
2022/01/31 06:45:53;;;;;;;6.18;1.27;;;4.60;99.90;;;;;;5094402;28;20077;-81
2022/01/31 06:48:19;;;;;;;10.35;1.65;;;4.60;99.90;;;;;;5076878;28;20036;-81
2022/01/31 06:50:45;;;;;;;9.35;1.80;;;4.60;99.90;;;;;;5094252;28;20027;-81
2022/01/31 06:53:12;;;;;;;13.65;1.73;;;4.60;99.90;;;;;;5111853;28;20031;-81
2022/01/31 06:55:39;;;;;;;10.43;1.60;;;4.60;99.90;;;;;;5078767;28;20141;-81
2022/01/31 06:58:05;;;;;;;11.10;1.73;;;4.60;99.90;;;;;;5110325;28;20047;-81
2022/01/31 07:00:31;;;;;;;11.20;1.92;;;4.60;99.90;;;;;;5091181;28;20046;-81
2022/01/31 07:03:00;;;;;;;11.65;1.92;;;4.70;99.90;;;;;;5097036;28;20036;-81
2022/01/31 07:05:26;;;;;;;11.30;2.00;;;4.70;99.90;;;;;;5079782;28;20043;-81
2022/01/31 07:07:52;;;;;;;13.10;2.05;;;4.70;99.90;;;;;;5087534;28;20036;-81
2022/01/31 07:10:18;;;;;;;12.57;2.08;;;4.70;99.90;;;;;;5093564;27;20043;-81
2022/01/31 07:12:51;;;;;;;10.57;1.67;;;4.70;99.90;;;;;;5110569;28;20036;-80
2022/01/31 07:15:17;;;;;;;12.15;2.05;;;4.70;99.90;;;;;;5082945;27;20032;-81
2022/01/31 07:17:44;;;;;;;17.88;2.38;;;4.80;99.90;;;;;;5084619;27;20479;-81
2022/01/31 07:20:18;;;;;;;10.45;1.70;;;4.80;99.90;;;;;;5084405;27;20032;-81
2022/01/31 07:22:50;;;;;;;14.93;2.10;;;4.80;99.90;;;;;;5074794;28;20042;-80
2022/01/31 07:25:32;;;;;;;16.52;2.40;;;4.80;99.90;;;;;;5086313;28;20040;-80
2022/01/31 07:27:58;;;;;;;16.90;2.65;;;4.80;99.90;;;;;;5085473;27;20051;-80
2022/01/31 07:30:23;;;;;;;13.73;2.15;;;4.80;99.90;;;;;;5075733;27;20048;-80
2022/01/31 07:32:49;;;;;;;16.27;2.38;;;4.80;99.90;;;;;;5094382;27;20048;-80
2022/01/31 07:35:15;;;;;;;12.30;2.15;;;4.80;99.90;;;;;;5096847;27;20075;-80
2022/01/31 07:37:41;;;;;;;16.63;2.40;;;4.90;99.90;;;;;;5083756;27;20431;-80
2022/01/31 07:40:07;;;;;;;13.80;2.25;;;4.90;99.90;;;;;;5115491;27;20043;-80
2022/01/31 07:42:33;;;;;;;12.38;2.30;;;5.00;99.90;;;;;;5100781;28;20078;-80
2022/01/31 07:44:59;;;;;;;10.52;1.80;;;4.90;99.90;;;;;;5083647;27;20517;-81
2022/01/31 07:47:25;;;;;;;11.48;2.05;;;4.90;99.90;;;;;;5081936;27;20095;-81
2022/01/31 07:49:51;;;;;;;11.23;1.73;;;5.00;99.90;;;;;;5098180;28;20552;-81
2022/01/31 07:52:17;;;;;;;9.93;2.10;;;5.00;99.90;;;;;;5076468;28;20035;-80
2022/01/31 07:54:44;;;;;;;9.48;1.60;;;5.00;99.90;;;;;;5096806;28;20038;-81
2022/01/31 07:57:10;;;;;;;11.70;2.25;;;5.00;99.90;;;;;;5076812;28;20039;-81
2022/01/31 07:59:36;;;;;;;12.35;2.00;;;5.00;99.90;;;;;;5102182;28;20043;-81
2022/01/31 08:02:02;;;;;;;10.88;2.15;;;5.00;99.90;;;;;;5072447;28;20494;-81
2022/01/31 08:04:28;;;;;;;12.75;2.00;;;5.00;99.90;;;;;;5097168;27;20043;-82
2022/01/31 08:06:53;;;;;;;10.63;1.88;;;5.00;99.90;;;;;;5091353;28;20544;-81
2022/01/31 08:09:19;;;;;;;8.43;1.65;;;5.00;99.90;;;;;;5061686;28;20069;-81
2022/01/31 08:11:45;;;;;;;13.02;1.98;;;5.00;99.90;;;;;;5074432;27;20071;-81
2022/01/31 08:14:13;;;;;;;13.30;2.30;;;5.00;99.90;;;;;;5075208;28;20040;-80
2022/01/31 08:16:39;;;;;;;9.32;1.80;;;4.90;99.90;;;;;;5086382;28;20557;-79
2022/01/31 08:19:07;;;;;;;9.75;1.80;;;4.90;99.90;;;;;;5093244;28;20115;-79
2022/01/31 08:21:35;;;;;;;14.52;2.05;;;5.00;99.90;;;;;;5071714;27;20559;-79
2022/01/31 08:24:01;;;;;;;11.20;1.80;;;4.90;99.90;;;;;;5062217;28;20127;-79
2022/01/31 08:26:27;;;;;;;10.50;1.80;;;5.00;99.90;;;;;;5085057;27;20550;-80
2022/01/31 08:28:56;;;;;;;9.15;1.70;;;5.10;99.90;;;;;;5102953;27;20132;-81
2022/01/31 08:36:22;;;;;;;;;;;5.10;99.90;;;;;;5112254;27;20074;-81
2022/01/31 08:38:47;;;;;;;9.40;1.73;;;5.10;99.90;;;;;;5112661;27;20409;-81
2022/01/31 08:41:14;;;;;;;8.35;1.90;;;5.10;99.90;;;;;;5096512;27;20126;-81
2022/01/31 08:43:40;;;;;;;9.02;1.75;;;5.10;99.90;;;;;;5110506;28;20044;-82
2022/01/31 08:46:08;;;;;;;10.93;1.95;;;5.60;99.90;;;;;;5078081;28;20407;-83
2022/01/31 08:48:34;;;;;;;11.43;1.95;;;5.10;99.90;;;;;;5112347;27;20092;-82
2022/01/31 08:51:01;;;;;;;12.05;2.05;;;5.20;99.90;;;;;;5112547;27;20051;-81
2022/01/31 08:53:26;;;;;;;11.98;2.08;;;5.50;99.90;;;;;;5089848;27;20036;-81
2022/01/31 08:55:55;;;;;;;9.93;1.63;;;5.80;99.90;;;;;;5107755;28;20089;-81
2022/01/31 08:58:21;;;;;;;10.30;2.05;;;5.30;99.90;;;;;;5107444;28;20390;-81
2022/01/31 09:00:51;;;;;;;11.02;1.98;;;5.40;99.90;;;;;;5090004;28;20112;-81
2022/01/31 09:03:35;;;;;;;11.88;2.30;;;5.50;99.90;;;;;;5105973;27;20039;-81
2022/01/31 09:06:02;;;;;;;14.15;2.17;;;5.50;99.90;;;;;;5091728;28;20065;-81
2022/01/31 09:08:28;;;;;;;16.50;2.53;;;5.50;99.90;;;;;;5110602;27;20782;-81
2022/01/31 09:10:54;;;;;;;12.48;2.30;;;5.50;99.90;;;;;;5084191;28;20036;-81
2022/01/31 09:13:20;;;;;;;12.95;2.20;;;5.60;99.90;;;;;;5086559;27;20035;-81
2022/01/31 09:15:45;;;;;;;13.15;2.40;;;5.60;99.90;;;;;;5105879;27;20039;-81
2022/01/31 09:18:11;;;;;;;11.65;2.13;;;5.70;99.90;;;;;;5075125;28;20032;-81
2022/01/31 09:20:37;;;;;;;12.55;2.33;;;5.70;99.90;;;;;;5095671;27;20035;-81
2022/01/31 09:23:04;;;;;;;15.27;4.00;;;5.80;99.90;;;;;;5110884;27;20126;-81
2022/01/31 09:25:31;;;;;;;22.98;8.70;;;5.80;99.90;;;;;;5091285;27;20102;-81
2022/01/31 09:27:58;;;;;;;10.32;2.13;;;5.90;99.90;;;;;;5078624;28;20048;-81
2022/01/31 09:30:26;;;;;;;11.05;2.30;;;5.90;99.90;;;;;;5109134;28;20058;-81
2022/01/31 09:32:53;;;;;;;11.23;2.58;;;5.90;99.90;;;;;;5090749;27;20042;-81
2022/01/31 09:35:19;;;;;;;10.20;2.10;;;6.20;99.90;;;;;;5076146;28;20044;-81
2022/01/31 09:37:45;;;;;;;12.35;2.22;;;6.00;99.90;;;;;;5094419;27;20113;-81
2022/01/31 09:40:17;;;;;;;12.35;2.20;;;6.00;99.90;;;;;;5079982;27;20044;-81
2022/01/31 09:45:56;;;;;;;9.27;1.83;;;6.00;99.90;;;;;;5108642;28;20058;-81
2022/01/31 09:48:36;;;;;;;11.82;1.85;;;6.00;99.90;;;;;;5109060;28;20032;-81
2022/01/31 09:51:06;;;;;;;10.45;2.10;;;6.10;99.90;;;;;;5091947;28;20032;-82
2022/01/31 09:53:37;;;;;;;11.95;2.08;;;6.10;99.90;;;;;;5094565;28;20047;-82
2022/01/31 09:56:04;;;;;;;10.50;1.98;;;6.20;99.90;;;;;;5093395;28;20403;-82
2022/01/31 09:58:30;;;;;;;9.90;1.90;;;6.20;99.90;;;;;;5090731;28;20108;-82
2022/01/31 10:01:13;;;;;;;9.57;2.00;;;6.30;99.90;;;;;;5109665;28;20488;-82
2022/01/31 10:03:50;;;;;;;10.23;1.90;;;6.30;99.90;;;;;;5109669;27;20047;-82
2022/01/31 10:06:20;;;;;;;10.40;1.90;;;6.30;99.90;;;;;;5093234;28;20493;-81
2022/01/31 10:08:47;;;;;;;12.82;1.63;;;6.50;99.90;;;;;;5090204;28;20036;-82
2022/01/31 10:11:46;;;;;;;10.15;2.03;;;6.60;99.90;;;;;;5088984;27;20044;-83
2022/01/31 10:17:11;;;;;;;10.05;1.80;;;6.60;99.90;;;;;;5107486;28;20096;-81
2022/01/31 10:19:43;;;;;;;12.57;1.90;;;6.60;99.90;;;;;;5100037;28;20036;-81
2022/01/31 10:22:12;;;;;;;9.50;1.83;;;6.60;99.90;;;;;;5096453;27;20096;-81
2022/01/31 10:24:40;;;;;;;11.48;2.08;;;6.60;99.90;;;;;;5103621;28;20100;-80
2022/01/31 10:27:08;;;;;;;9.35;1.80;;;6.70;99.90;;;;;;5098406;28;20036;-80
2022/01/31 10:29:34;;;;;;;10.85;1.88;;;6.80;99.90;;;;;;5101239;28;20063;-80
2022/01/31 10:32:10;;;;;;;10.98;2.50;;;6.60;99.90;;;;;;5080073;28;20208;-80
2022/01/31 10:35:10;;;;;;;10.68;1.77;;;6.60;99.90;;;;;;5090488;28;20043;-81
2022/01/31 10:37:40;;;;;;;7.60;1.77;;;6.60;99.90;;;;;;5086423;28;20107;-81
2022/01/31 10:54:15;;;;;;;11.20;2.08;;;7.50;99.90;;;;;;5116453;27;20412;-81
2022/01/31 10:56:55;;;;;;;10.23;2.42;;;7.50;99.90;;;;;;5095834;28;20039;-82
2022/01/31 10:59:25;;;;;;;13.45;4.13;;;7.40;99.90;;;;;;5116068;28;20044;-83
2022/01/31 11:01:53;;;;;;;11.43;2.20;;;7.30;99.90;;;;;;5097899;28;20122;-82
2022/01/31 11:04:20;;;;;;;13.90;2.65;;;7.30;99.90;;;;;;5108527;27;20523;-82
2022/01/31 11:06:48;;;;;;;22.80;6.53;;;7.30;99.90;;;;;;5112303;28;20035;-83
2022/01/31 11:09:17;;;;;;;11.27;2.13;;;7.30;99.90;;;;;;5097924;27;20036;-83
2022/01/31 11:11:47;;;;;;;11.30;1.90;;;7.30;99.90;;;;;;5113494;27;20043;-82
2022/01/31 11:14:14;;;;;;;29.17;9.35;;;7.20;99.90;;;;;;5113488;27;20122;-83
2022/01/31 11:16:43;;;;;;;13.75;2.20;;;7.10;99.90;;;;;;5111670;28;20039;-83
2022/01/31 11:19:10;;;;;;;10.77;2.00;;;7.20;99.90;;;;;;5110330;28;20040;-83
2022/01/31 11:21:47;;;;;;;12.55;2.42;;;7.10;99.90;;;;;;5123535;28;20039;-83
2022/01/31 11:24:30;;;;;;;10.73;2.05;;;7.20;99.90;;;;;;5126893;27;20104;-83
2022/01/31 11:27:13;;;;;;;10.88;1.80;;;7.20;99.90;;;;;;5090808;28;20035;-81
2022/01/31 11:29:45;;;;;;;12.77;2.35;;;7.10;99.90;;;;;;5096285;28;20058;-81
2022/01/31 11:32:12;;;;;;;10.80;1.90;;;7.10;99.90;;;;;;5093613;27;20461;-80
2022/01/31 11:34:42;;;;;;;16.05;2.75;;;7.10;99.90;;;;;;5087665;27;20372;-81
2022/01/31 11:37:13;;;;;;;11.68;2.10;;;7.20;99.90;;;;;;5082346;28;20048;-80
2022/01/31 11:39:42;;;;;;;11.13;1.98;;;7.30;99.90;;;;;;5103412;27;20128;-82
2022/01/31 11:42:10;;;;;;;14.45;2.35;;;7.40;99.90;;;;;;5104615;28;20040;-82
2022/01/31 11:44:36;;;;;;;14.10;2.20;;;7.40;99.90;;;;;;5109832;27;20048;-82
2022/01/31 11:47:04;;;;;;;10.25;1.70;;;7.50;99.90;;;;;;5107682;27;20487;-82
2022/01/31 11:49:50;;;;;;;10.60;2.20;;;7.50;99.90;;;;;;5096833;27;20047;-82
2022/01/31 11:52:17;;;;;;;10.20;1.80;;;7.50;99.90;;;;;;5095216;28;20040;-82
2022/01/31 11:54:47;;;;;;;14.02;3.10;;;7.60;99.90;;;;;;5090926;28;20119;-82
2022/01/31 11:57:22;;;;;;;13.57;2.17;;;7.60;99.90;;;;;;5093569;27;20126;-82
2022/01/31 11:59:54;;;;;;;11.20;2.00;;;7.70;99.90;;;;;;5096600;28;20435;-82
2022/01/31 12:02:22;;;;;;;12.40;2.15;;;7.70;99.90;;;;;;5089425;28;20642;-82
2022/01/31 12:04:50;;;;;;;12.93;2.80;;;7.80;99.90;;;;;;5092404;28;20043;-81
2022/01/31 12:08:05;;;;;;;13.75;2.45;;;7.80;99.90;;;;;;5089124;27;20039;-81
2022/01/31 12:10:41;;;;;;;12.57;2.03;;;7.80;99.90;;;;;;5008456;28;20513;-81
2022/01/31 12:13:38;;;;;;;16.17;2.20;;;7.80;99.90;;;;;;5079864;27;20072;-81
2022/01/31 12:16:24;;;;;;;12.77;2.20;;;7.70;99.90;;;;;;5113399;27;20372;-83
2022/01/31 12:24:40;;;;;;;14.20;1.92;;;7.80;99.90;;;;;;5111964;28;20042;-82
2022/01/31 12:27:25;;;;;;;14.10;1.98;;;7.90;99.90;;;;;;5110075;28;20039;-82
2022/01/31 12:29:59;;;;;;;13.77;2.13;;;7.90;99.90;;;;;;5110178;28;20052;-83
2022/01/31 12:32:36;;;;;;;13.60;2.10;;;7.90;99.90;;;;;;5111151;28;20032;-82
2022/01/31 12:35:11;;;;;;;13.70;2.13;;;7.90;99.90;;;;;;5078001;27;20043;-82
2022/01/31 12:38:05;;;;;;;10.68;2.30;;;8.00;99.90;;;;;;5084771;28;20067;-82
2022/01/31 12:40:43;;;;;;;17.40;2.45;;;8.00;99.90;;;;;;5101947;28;20043;-83
2022/01/31 12:43:47;;;;;;;10.77;2.13;;;8.00;99.90;;;;;;5077065;28;20032;-82
2022/01/31 12:46:16;;;;;;;33.15;14.05;;;8.00;99.90;;;;;;5086309;27;20043;-82
2022/01/31 12:48:43;;;;;;;17.63;3.90;;;7.90;99.90;;;;;;5082921;27;20035;-82
2022/01/31 12:51:13;;;;;;;13.88;2.50;;;8.00;99.90;;;;;;5081373;27;20075;-82
2022/01/31 12:53:43;;;;;;;16.02;2.58;;;8.00;99.90;;;;;;5082297;27;20386;-82
2022/01/31 12:56:25;;;;;;;13.27;2.50;;;8.00;99.90;;;;;;5100768;28;20514;-82
2022/01/31 12:58:52;;;;;;;14.30;2.70;;;8.10;99.90;;;;;;5104967;28;20096;-82
2022/01/31 13:01:18;;;;;;;17.83;2.97;;;8.00;99.90;;;;;;5094143;27;20136;-82
2022/01/31 13:03:47;;;;;;;12.85;2.60;;;7.90;99.90;;;;;;5109873;27;20032;-82
2022/01/31 13:06:40;;;;;;;14.93;2.78;;;7.90;99.90;;;;;;5114011;27;20386;-82
2022/01/31 13:09:05;;;;;;;15.07;2.90;;;8.00;99.90;;;;;;5109322;27;20047;-82
2022/01/31 13:11:32;;;;;;;13.95;2.42;;;8.00;99.90;;;;;;5115937;27;20039;-82
2022/01/31 13:14:31;;;;;;;16.17;2.90;;;8.10;99.90;;;;;;5064729;28;20513;-82
2022/01/31 13:19:34;;;;;;;14.73;2.60;;;8.00;99.90;;;;;;5104291;28;20036;-82
2022/01/31 13:22:14;;;;;;;19.97;2.83;;;7.90;99.90;;;;;;5098261;28;20035;-82
2022/01/31 13:24:43;;;;;;;16.60;3.22;;;7.80;99.90;;;;;;5097661;28;20270;-82
2022/01/31 13:27:14;;;;;;;17.92;2.80;;;7.70;99.90;;;;;;5112693;27;20036;-82